sensor_id;sensor_type;location;lat;lon;timestamp;P1;durP1;ratioP1;P2;durP2;ratioP2
66175;SDS011;52977;44.816;20.538;2023-07-29T00:00:52;9.73;;;4.90;;
66175;SDS011;52977;44.816;20.538;2023-07-29T00:03:18;10.85;;;4.68;;
66175;SDS011;52977;44.816;20.538;2023-07-29T00:05:44;8.30;;;4.45;;
66175;SDS011;52977;44.816;20.538;2023-07-29T00:08:09;8.85;;;4.78;;
66175;SDS011;52977;44.816;20.538;2023-07-29T00:10:35;8.25;;;4.50;;
66175;SDS011;52977;44.816;20.538;2023-07-29T00:13:03;9.73;;;4.95;;
66175;SDS011;52977;44.816;20.538;2023-07-29T00:15:29;8.43;;;4.03;;
66175;SDS011;52977;44.816;20.538;2023-07-29T00:17:55;10.02;;;4.57;;
66175;SDS011;52977;44.816;20.538;2023-07-29T00:20:22;9.15;;;4.53;;
66175;SDS011;52977;44.816;20.538;2023-07-29T00:22:48;10.30;;;4.78;;
66175;SDS011;52977;44.816;20.538;2023-07-29T00:25:19;9.98;;;4.65;;
66175;SDS011;52977;44.816;20.538;2023-07-29T00:27:45;10.63;;;4.68;;
66175;SDS011;52977;44.816;20.538;2023-07-29T00:30:11;9.05;;;4.32;;
66175;SDS011;52977;44.816;20.538;2023-07-29T00:32:37;9.18;;;4.65;;
66175;SDS011;52977;44.816;20.538;2023-07-29T00:35:04;9.68;;;4.50;;
66175;SDS011;52977;44.816;20.538;2023-07-29T00:37:31;8.75;;;4.40;;
66175;SDS011;52977;44.816;20.538;2023-07-29T00:39:57;11.57;;;5.05;;
66175;SDS011;52977;44.816;20.538;2023-07-29T00:42:24;11.00;;;4.68;;
66175;SDS011;52977;44.816;20.538;2023-07-29T00:44:50;11.82;;;4.80;;
66175;SDS011;52977;44.816;20.538;2023-07-29T00:47:16;9.45;;;4.65;;
66175;SDS011;52977;44.816;20.538;2023-07-29T00:49:44;9.27;;;4.82;;
66175;SDS011;52977;44.816;20.538;2023-07-29T00:52:11;9.38;;;4.45;;
66175;SDS011;52977;44.816;20.538;2023-07-29T00:54:42;7.75;;;4.30;;
66175;SDS011;52977;44.816;20.538;2023-07-29T00:57:08;9.05;;;4.68;;
66175;SDS011;52977;44.816;20.538;2023-07-29T00:59:37;10.57;;;4.88;;
66175;SDS011;52977;44.816;20.538;2023-07-29T01:02:04;11.20;;;4.68;;
66175;SDS011;52977;44.816;20.538;2023-07-29T01:04:31;8.20;;;4.22;;
66175;SDS011;52977;44.816;20.538;2023-07-29T01:07:06;10.10;;;4.57;;
66175;SDS011;52977;44.816;20.538;2023-07-29T01:12:47;8.88;;;4.38;;
66175;SDS011;52977;44.816;20.538;2023-07-29T01:15:42;9.88;;;4.88;;
66175;SDS011;52977;44.816;20.538;2023-07-29T01:18:20;8.85;;;4.10;;
66175;SDS011;52977;44.816;20.538;2023-07-29T01:20:48;10.00;;;4.60;;
66175;SDS011;52977;44.816;20.538;2023-07-29T01:23:25;7.93;;;4.28;;
66175;SDS011;52977;44.816;20.538;2023-07-29T01:25:54;9.20;;;4.13;;
66175;SDS011;52977;44.816;20.538;2023-07-29T01:28:20;10.98;;;4.25;;
66175;SDS011;52977;44.816;20.538;2023-07-29T01:30:45;8.40;;;4.28;;
66175;SDS011;52977;44.816;20.538;2023-07-29T01:33:16;8.85;;;3.55;;
66175;SDS011;52977;44.816;20.538;2023-07-29T01:35:46;7.03;;;3.90;;
66175;SDS011;52977;44.816;20.538;2023-07-29T01:38:18;7.55;;;3.72;;
66175;SDS011;52977;44.816;20.538;2023-07-29T01:43:13;7.07;;;3.28;;
66175;SDS011;52977;44.816;20.538;2023-07-29T01:45:39;7.60;;;3.58;;
66175;SDS011;52977;44.816;20.538;2023-07-29T01:48:05;7.57;;;3.30;;
66175;SDS011;52977;44.816;20.538;2023-07-29T01:50:32;8.88;;;3.63;;
66175;SDS011;52977;44.816;20.538;2023-07-29T01:52:58;9.50;;;4.00;;
66175;SDS011;52977;44.816;20.538;2023-07-29T01:55:24;6.72;;;3.65;;
66175;SDS011;52977;44.816;20.538;2023-07-29T01:57:50;6.50;;;3.50;;
66175;SDS011;52977;44.816;20.538;2023-07-29T02:00:20;6.90;;;3.55;;
66175;SDS011;52977;44.816;20.538;2023-07-29T02:02:46;5.65;;;3.38;;
66175;SDS011;52977;44.816;20.538;2023-07-29T02:05:12;8.02;;;3.67;;
66175;SDS011;52977;44.816;20.538;2023-07-29T02:07:38;6.47;;;3.50;;
66175;SDS011;52977;44.816;20.538;2023-07-29T02:10:03;6.97;;;3.20;;
66175;SDS011;52977;44.816;20.538;2023-07-29T02:12:29;8.70;;;3.35;;
66175;SDS011;52977;44.816;20.538;2023-07-29T02:14:55;8.27;;;3.60;;
66175;SDS011;52977;44.816;20.538;2023-07-29T02:17:20;7.43;;;3.47;;
66175;SDS011;52977;44.816;20.538;2023-07-29T02:19:46;7.93;;;3.90;;
66175;SDS011;52977;44.816;20.538;2023-07-29T02:22:13;6.45;;;3.13;;
66175;SDS011;52977;44.816;20.538;2023-07-29T02:24:40;7.05;;;3.45;;
66175;SDS011;52977;44.816;20.538;2023-07-29T02:27:06;6.85;;;3.28;;
66175;SDS011;52977;44.816;20.538;2023-07-29T02:29:32;7.75;;;3.50;;
66175;SDS011;52977;44.816;20.538;2023-07-29T02:31:59;9.23;;;3.60;;
66175;SDS011;52977;44.816;20.538;2023-07-29T02:34:26;8.70;;;3.70;;
66175;SDS011;52977;44.816;20.538;2023-07-29T02:36:52;6.22;;;3.38;;
66175;SDS011;52977;44.816;20.538;2023-07-29T02:39:18;6.38;;;3.45;;
66175;SDS011;52977;44.816;20.538;2023-07-29T02:41:45;7.80;;;3.30;;
66175;SDS011;52977;44.816;20.538;2023-07-29T02:44:11;6.55;;;3.40;;
66175;SDS011;52977;44.816;20.538;2023-07-29T02:46:37;6.75;;;3.40;;
66175;SDS011;52977;44.816;20.538;2023-07-29T02:49:03;5.28;;;2.83;;
66175;SDS011;52977;44.816;20.538;2023-07-29T02:51:32;8.52;;;3.10;;
66175;SDS011;52977;44.816;20.538;2023-07-29T02:53:58;5.28;;;3.22;;
66175;SDS011;52977;44.816;20.538;2023-07-29T02:56:24;6.07;;;2.80;;
66175;SDS011;52977;44.816;20.538;2023-07-29T02:58:50;5.57;;;3.00;;
66175;SDS011;52977;44.816;20.538;2023-07-29T03:01:17;5.68;;;2.97;;
66175;SDS011;52977;44.816;20.538;2023-07-29T03:03:43;7.90;;;3.95;;
66175;SDS011;52977;44.816;20.538;2023-07-29T03:06:11;5.20;;;2.70;;
66175;SDS011;52977;44.816;20.538;2023-07-29T03:08:39;6.70;;;2.90;;
66175;SDS011;52977;44.816;20.538;2023-07-29T03:11:06;6.60;;;2.90;;
66175;SDS011;52977;44.816;20.538;2023-07-29T03:13:33;7.63;;;3.30;;
66175;SDS011;52977;44.816;20.538;2023-07-29T03:18:32;7.07;;;3.30;;
66175;SDS011;52977;44.816;20.538;2023-07-29T03:20:59;8.32;;;3.30;;
66175;SDS011;52977;44.816;20.538;2023-07-29T03:23:25;8.15;;;3.20;;
66175;SDS011;52977;44.816;20.538;2023-07-29T03:25:51;8.18;;;3.03;;
66175;SDS011;52977;44.816;20.538;2023-07-29T03:28:23;10.23;;;3.40;;
66175;SDS011;52977;44.816;20.538;2023-07-29T03:30:50;12.15;;;3.47;;
66175;SDS011;52977;44.816;20.538;2023-07-29T03:33:16;7.25;;;3.70;;
66175;SDS011;52977;44.816;20.538;2023-07-29T03:35:42;6.57;;;3.35;;
66175;SDS011;52977;44.816;20.538;2023-07-29T03:38:10;7.00;;;3.45;;
66175;SDS011;52977;44.816;20.538;2023-07-29T03:40:39;8.70;;;3.30;;
66175;SDS011;52977;44.816;20.538;2023-07-29T03:43:05;7.45;;;3.47;;
66175;SDS011;52977;44.816;20.538;2023-07-29T03:45:31;6.18;;;3.28;;
66175;SDS011;52977;44.816;20.538;2023-07-29T03:47:56;7.43;;;3.30;;
66175;SDS011;52977;44.816;20.538;2023-07-29T03:50:22;6.75;;;3.28;;
66175;SDS011;52977;44.816;20.538;2023-07-29T03:52:48;8.23;;;3.20;;
66175;SDS011;52977;44.816;20.538;2023-07-29T03:55:14;7.18;;;3.25;;
66175;SDS011;52977;44.816;20.538;2023-07-29T03:57:40;5.93;;;3.30;;
66175;SDS011;52977;44.816;20.538;2023-07-29T04:00:06;6.55;;;3.10;;
66175;SDS011;52977;44.816;20.538;2023-07-29T04:02:41;5.03;;;2.85;;
66175;SDS011;52977;44.816;20.538;2023-07-29T04:05:08;6.82;;;3.08;;
66175;SDS011;52977;44.816;20.538;2023-07-29T04:07:34;5.82;;;3.20;;
66175;SDS011;52977;44.816;20.538;2023-07-29T04:10:02;6.35;;;2.88;;
66175;SDS011;52977;44.816;20.538;2023-07-29T04:12:28;6.30;;;3.10;;
66175;SDS011;52977;44.816;20.538;2023-07-29T04:14:55;6.15;;;3.22;;
66175;SDS011;52977;44.816;20.538;2023-07-29T04:17:21;6.55;;;3.38;;
66175;SDS011;52977;44.816;20.538;2023-07-29T04:19:47;11.50;;;4.85;;
66175;SDS011;52977;44.816;20.538;2023-07-29T04:22:13;7.85;;;3.90;;
66175;SDS011;52977;44.816;20.538;2023-07-29T04:24:40;6.93;;;3.80;;
66175;SDS011;52977;44.816;20.538;2023-07-29T04:27:06;7.93;;;3.60;;
66175;SDS011;52977;44.816;20.538;2023-07-29T04:29:32;8.43;;;4.07;;
66175;SDS011;52977;44.816;20.538;2023-07-29T04:31:58;9.15;;;4.03;;
66175;SDS011;52977;44.816;20.538;2023-07-29T04:34:24;6.80;;;3.90;;
66175;SDS011;52977;44.816;20.538;2023-07-29T04:36:51;7.97;;;3.80;;
66175;SDS011;52977;44.816;20.538;2023-07-29T04:39:17;8.55;;;4.45;;
66175;SDS011;52977;44.816;20.538;2023-07-29T04:41:43;12.25;;;6.88;;
66175;SDS011;52977;44.816;20.538;2023-07-29T04:44:09;10.25;;;4.70;;
66175;SDS011;52977;44.816;20.538;2023-07-29T04:46:36;8.98;;;4.60;;
66175;SDS011;52977;44.816;20.538;2023-07-29T04:49:01;12.20;;;6.80;;
66175;SDS011;52977;44.816;20.538;2023-07-29T04:51:27;12.07;;;6.00;;
66175;SDS011;52977;44.816;20.538;2023-07-29T04:53:54;8.20;;;4.80;;
66175;SDS011;52977;44.816;20.538;2023-07-29T04:56:19;9.40;;;4.53;;
66175;SDS011;52977;44.816;20.538;2023-07-29T04:58:45;9.48;;;4.68;;
66175;SDS011;52977;44.816;20.538;2023-07-29T05:01:12;9.55;;;4.47;;
66175;SDS011;52977;44.816;20.538;2023-07-29T05:03:38;8.43;;;4.28;;
66175;SDS011;52977;44.816;20.538;2023-07-29T05:06:06;8.68;;;4.28;;
66175;SDS011;52977;44.816;20.538;2023-07-29T05:08:32;6.72;;;3.83;;
66175;SDS011;52977;44.816;20.538;2023-07-29T05:10:58;10.48;;;4.18;;
66175;SDS011;52977;44.816;20.538;2023-07-29T05:13:25;9.95;;;4.70;;
66175;SDS011;52977;44.816;20.538;2023-07-29T05:15:51;11.07;;;4.65;;
66175;SDS011;52977;44.816;20.538;2023-07-29T05:18:18;11.57;;;4.25;;
66175;SDS011;52977;44.816;20.538;2023-07-29T05:20:44;8.90;;;4.22;;
66175;SDS011;52977;44.816;20.538;2023-07-29T05:23:11;13.80;;;5.35;;
66175;SDS011;52977;44.816;20.538;2023-07-29T05:25:37;9.73;;;5.00;;
66175;SDS011;52977;44.816;20.538;2023-07-29T05:28:03;12.00;;;4.97;;
66175;SDS011;52977;44.816;20.538;2023-07-29T05:30:30;10.98;;;5.03;;
66175;SDS011;52977;44.816;20.538;2023-07-29T05:33:08;13.18;;;6.20;;
66175;SDS011;52977;44.816;20.538;2023-07-29T05:35:34;16.05;;;7.38;;
66175;SDS011;52977;44.816;20.538;2023-07-29T05:38:01;15.52;;;7.43;;
66175;SDS011;52977;44.816;20.538;2023-07-29T05:40:29;15.40;;;6.80;;
66175;SDS011;52977;44.816;20.538;2023-07-29T05:42:55;16.75;;;8.18;;
66175;SDS011;52977;44.816;20.538;2023-07-29T05:45:22;13.48;;;7.10;;
66175;SDS011;52977;44.816;20.538;2023-07-29T05:47:48;22.20;;;12.38;;
66175;SDS011;52977;44.816;20.538;2023-07-29T05:50:15;24.05;;;13.68;;
66175;SDS011;52977;44.816;20.538;2023-07-29T05:52:41;18.35;;;10.75;;
66175;SDS011;52977;44.816;20.538;2023-07-29T05:55:07;16.67;;;9.55;;
66175;SDS011;52977;44.816;20.538;2023-07-29T05:57:34;13.68;;;8.23;;
66175;SDS011;52977;44.816;20.538;2023-07-29T06:00:00;13.05;;;7.43;;
66175;SDS011;52977;44.816;20.538;2023-07-29T06:02:27;12.52;;;7.05;;
66175;SDS011;52977;44.816;20.538;2023-07-29T06:04:54;10.65;;;6.65;;
66175;SDS011;52977;44.816;20.538;2023-07-29T06:07:19;12.88;;;6.40;;
66175;SDS011;52977;44.816;20.538;2023-07-29T06:09:45;14.80;;;7.28;;
66175;SDS011;52977;44.816;20.538;2023-07-29T06:12:12;12.07;;;6.72;;
66175;SDS011;52977;44.816;20.538;2023-07-29T06:14:38;12.10;;;6.28;;
66175;SDS011;52977;44.816;20.538;2023-07-29T06:17:04;12.48;;;6.32;;
66175;SDS011;52977;44.816;20.538;2023-07-29T06:19:32;12.32;;;6.78;;
66175;SDS011;52977;44.816;20.538;2023-07-29T06:21:58;13.77;;;6.53;;
66175;SDS011;52977;44.816;20.538;2023-07-29T06:24:24;11.50;;;6.40;;
66175;SDS011;52977;44.816;20.538;2023-07-29T06:26:50;13.13;;;8.65;;
66175;SDS011;52977;44.816;20.538;2023-07-29T06:29:16;39.53;;;21.98;;
66175;SDS011;52977;44.816;20.538;2023-07-29T06:31:42;25.58;;;13.52;;
66175;SDS011;52977;44.816;20.538;2023-07-29T06:34:08;16.60;;;9.52;;
66175;SDS011;52977;44.816;20.538;2023-07-29T06:36:34;13.02;;;7.85;;
66175;SDS011;52977;44.816;20.538;2023-07-29T06:39:00;15.30;;;8.27;;
66175;SDS011;52977;44.816;20.538;2023-07-29T06:41:27;14.10;;;7.32;;
66175;SDS011;52977;44.816;20.538;2023-07-29T06:43:53;18.77;;;7.88;;
66175;SDS011;52977;44.816;20.538;2023-07-29T06:46:19;17.63;;;7.50;;
66175;SDS011;52977;44.816;20.538;2023-07-29T06:48:45;14.32;;;7.32;;
66175;SDS011;52977;44.816;20.538;2023-07-29T06:51:11;13.88;;;6.68;;
66175;SDS011;52977;44.816;20.538;2023-07-29T06:53:37;13.90;;;6.70;;
66175;SDS011;52977;44.816;20.538;2023-07-29T06:56:04;14.57;;;6.32;;
66175;SDS011;52977;44.816;20.538;2023-07-29T06:58:30;16.88;;;6.72;;
66175;SDS011;52977;44.816;20.538;2023-07-29T07:00:56;13.15;;;6.15;;
66175;SDS011;52977;44.816;20.538;2023-07-29T07:03:22;16.40;;;6.10;;
66175;SDS011;52977;44.816;20.538;2023-07-29T07:05:49;12.95;;;6.07;;
66175;SDS011;52977;44.816;20.538;2023-07-29T07:08:15;16.80;;;7.03;;
66175;SDS011;52977;44.816;20.538;2023-07-29T07:10:42;11.38;;;5.68;;
66175;SDS011;52977;44.816;20.538;2023-07-29T07:13:07;17.10;;;5.97;;
66175;SDS011;52977;44.816;20.538;2023-07-29T07:15:33;10.20;;;5.75;;
66175;SDS011;52977;44.816;20.538;2023-07-29T07:17:59;13.45;;;5.70;;
66175;SDS011;52977;44.816;20.538;2023-07-29T07:20:25;14.30;;;7.35;;
66175;SDS011;52977;44.816;20.538;2023-07-29T07:22:51;13.20;;;6.97;;
66175;SDS011;52977;44.816;20.538;2023-07-29T07:25:17;11.63;;;5.60;;
66175;SDS011;52977;44.816;20.538;2023-07-29T07:27:43;14.98;;;6.65;;
66175;SDS011;52977;44.816;20.538;2023-07-29T07:30:09;10.95;;;5.75;;
66175;SDS011;52977;44.816;20.538;2023-07-29T07:32:36;12.73;;;5.72;;
66175;SDS011;52977;44.816;20.538;2023-07-29T07:35:02;11.20;;;5.72;;
66175;SDS011;52977;44.816;20.538;2023-07-29T07:37:28;11.18;;;5.88;;
66175;SDS011;52977;44.816;20.538;2023-07-29T07:39:54;10.48;;;5.18;;
66175;SDS011;52977;44.816;20.538;2023-07-29T07:42:20;10.93;;;4.78;;
66175;SDS011;52977;44.816;20.538;2023-07-29T07:44:46;9.85;;;4.60;;
66175;SDS011;52977;44.816;20.538;2023-07-29T07:47:13;12.18;;;4.75;;
66175;SDS011;52977;44.816;20.538;2023-07-29T07:49:38;11.48;;;4.88;;
66175;SDS011;52977;44.816;20.538;2023-07-29T07:52:04;10.90;;;5.45;;
66175;SDS011;52977;44.816;20.538;2023-07-29T07:54:30;8.35;;;4.65;;
66175;SDS011;52977;44.816;20.538;2023-07-29T07:56:56;9.77;;;4.97;;
66175;SDS011;52977;44.816;20.538;2023-07-29T07:59:22;10.00;;;5.68;;
66175;SDS011;52977;44.816;20.538;2023-07-29T08:01:48;9.02;;;4.78;;
66175;SDS011;52977;44.816;20.538;2023-07-29T08:04:13;9.95;;;4.95;;
66175;SDS011;52977;44.816;20.538;2023-07-29T08:06:39;11.10;;;5.05;;
66175;SDS011;52977;44.816;20.538;2023-07-29T08:09:05;9.82;;;4.88;;
66175;SDS011;52977;44.816;20.538;2023-07-29T08:11:30;8.75;;;4.97;;
66175;SDS011;52977;44.816;20.538;2023-07-29T08:13:56;7.07;;;4.50;;
66175;SDS011;52977;44.816;20.538;2023-07-29T08:16:21;9.68;;;4.68;;
66175;SDS011;52977;44.816;20.538;2023-07-29T08:18:47;10.60;;;4.75;;
66175;SDS011;52977;44.816;20.538;2023-07-29T08:21:13;10.73;;;4.22;;
66175;SDS011;52977;44.816;20.538;2023-07-29T08:23:38;7.93;;;4.32;;
66175;SDS011;52977;44.816;20.538;2023-07-29T08:26:05;10.35;;;4.22;;
66175;SDS011;52977;44.816;20.538;2023-07-29T08:28:32;8.23;;;4.25;;
66175;SDS011;52977;44.816;20.538;2023-07-29T08:31:03;8.20;;;4.10;;
66175;SDS011;52977;44.816;20.538;2023-07-29T08:33:30;15.15;;;5.65;;
66175;SDS011;52977;44.816;20.538;2023-07-29T08:35:57;8.98;;;4.13;;
66175;SDS011;52977;44.816;20.538;2023-07-29T08:38:24;9.98;;;4.47;;
66175;SDS011;52977;44.816;20.538;2023-07-29T08:40:57;8.23;;;4.47;;
66175;SDS011;52977;44.816;20.538;2023-07-29T08:43:31;9.45;;;4.95;;
66175;SDS011;52977;44.816;20.538;2023-07-29T08:45:59;10.80;;;4.72;;
66175;SDS011;52977;44.816;20.538;2023-07-29T08:48:32;12.88;;;5.28;;
66175;SDS011;52977;44.816;20.538;2023-07-29T08:51:02;10.07;;;4.55;;
66175;SDS011;52977;44.816;20.538;2023-07-29T08:53:29;10.35;;;4.57;;
66175;SDS011;52977;44.816;20.538;2023-07-29T08:55:56;10.15;;;4.88;;
66175;SDS011;52977;44.816;20.538;2023-07-29T08:58:23;7.65;;;4.63;;
66175;SDS011;52977;44.816;20.538;2023-07-29T09:00:50;10.80;;;4.93;;
66175;SDS011;52977;44.816;20.538;2023-07-29T09:03:16;10.68;;;4.70;;
66175;SDS011;52977;44.816;20.538;2023-07-29T09:05:42;9.98;;;4.45;;
66175;SDS011;52977;44.816;20.538;2023-07-29T09:08:09;9.45;;;4.88;;
66175;SDS011;52977;44.816;20.538;2023-07-29T09:10:36;7.72;;;4.47;;
66175;SDS011;52977;44.816;20.538;2023-07-29T09:13:06;7.40;;;3.90;;
66175;SDS011;52977;44.816;20.538;2023-07-29T09:15:34;9.68;;;4.63;;
66175;SDS011;52977;44.816;20.538;2023-07-29T09:18:13;7.50;;;4.13;;
66175;SDS011;52977;44.816;20.538;2023-07-29T09:20:42;7.40;;;3.65;;
66175;SDS011;52977;44.816;20.538;2023-07-29T09:23:09;6.95;;;3.70;;
66175;SDS011;52977;44.816;20.538;2023-07-29T09:26:01;7.57;;;3.97;;
66175;SDS011;52977;44.816;20.538;2023-07-29T09:28:32;10.18;;;4.13;;
66175;SDS011;52977;44.816;20.538;2023-07-29T09:31:00;9.30;;;4.20;;
66175;SDS011;52977;44.816;20.538;2023-07-29T09:33:26;7.18;;;4.53;;
66175;SDS011;52977;44.816;20.538;2023-07-29T09:35:52;8.13;;;3.80;;
66175;SDS011;52977;44.816;20.538;2023-07-29T09:38:25;7.85;;;4.20;;
66175;SDS011;52977;44.816;20.538;2023-07-29T09:40:54;7.97;;;4.65;;
66175;SDS011;52977;44.816;20.538;2023-07-29T09:43:24;9.88;;;4.78;;
66175;SDS011;52977;44.816;20.538;2023-07-29T09:45:54;8.35;;;5.20;;
66175;SDS011;52977;44.816;20.538;2023-07-29T09:48:22;9.75;;;5.03;;
66175;SDS011;52977;44.816;20.538;2023-07-29T09:50:48;7.18;;;4.38;;
66175;SDS011;52977;44.816;20.538;2023-07-29T09:53:14;10.75;;;5.07;;
66175;SDS011;52977;44.816;20.538;2023-07-29T09:55:45;8.15;;;4.50;;
66175;SDS011;52977;44.816;20.538;2023-07-29T09:58:14;8.35;;;5.38;;
66175;SDS011;52977;44.816;20.538;2023-07-29T10:00:40;12.23;;;4.72;;
66175;SDS011;52977;44.816;20.538;2023-07-29T10:03:07;7.38;;;4.50;;
66175;SDS011;52977;44.816;20.538;2023-07-29T10:05:33;14.68;;;4.47;;
66175;SDS011;52977;44.816;20.538;2023-07-29T10:08:01;9.13;;;4.80;;
66175;SDS011;52977;44.816;20.538;2023-07-29T10:10:28;7.30;;;4.32;;
66175;SDS011;52977;44.816;20.538;2023-07-29T10:12:55;8.88;;;4.60;;
66175;SDS011;52977;44.816;20.538;2023-07-29T10:15:22;6.15;;;3.15;;
66175;SDS011;52977;44.816;20.538;2023-07-29T10:17:48;8.20;;;3.30;;
66175;SDS011;52977;44.816;20.538;2023-07-29T10:20:16;7.47;;;3.65;;
66175;SDS011;52977;44.816;20.538;2023-07-29T10:22:43;10.65;;;3.50;;
66175;SDS011;52977;44.816;20.538;2023-07-29T10:25:18;11.07;;;3.92;;
66175;SDS011;52977;44.816;20.538;2023-07-29T10:27:56;7.50;;;3.75;;
66175;SDS011;52977;44.816;20.538;2023-07-29T10:30:27;7.70;;;3.80;;
66175;SDS011;52977;44.816;20.538;2023-07-29T10:32:54;9.13;;;4.05;;
66175;SDS011;52977;44.816;20.538;2023-07-29T10:35:24;7.10;;;4.03;;
66175;SDS011;52977;44.816;20.538;2023-07-29T10:38:10;5.93;;;3.80;;
66175;SDS011;52977;44.816;20.538;2023-07-29T10:40:52;6.55;;;3.70;;
66175;SDS011;52977;44.816;20.538;2023-07-29T10:45:51;6.63;;;4.35;;
66175;SDS011;52977;44.816;20.538;2023-07-29T10:56:35;7.75;;;4.10;;
66175;SDS011;52977;44.816;20.538;2023-07-29T11:01:38;8.32;;;3.97;;
66175;SDS011;52977;44.816;20.538;2023-07-29T11:15:02;7.35;;;3.90;;
66175;SDS011;52977;44.816;20.538;2023-07-29T11:17:32;7.37;;;3.47;;
66175;SDS011;52977;44.816;20.538;2023-07-29T11:20:02;8.48;;;3.55;;
66175;SDS011;52977;44.816;20.538;2023-07-29T11:22:29;12.45;;;3.80;;
66175;SDS011;52977;44.816;20.538;2023-07-29T11:24:56;6.97;;;3.25;;
66175;SDS011;52977;44.816;20.538;2023-07-29T11:27:22;6.45;;;3.13;;
66175;SDS011;52977;44.816;20.538;2023-07-29T11:29:48;6.40;;;3.65;;
66175;SDS011;52977;44.816;20.538;2023-07-29T11:32:15;5.60;;;2.55;;
66175;SDS011;52977;44.816;20.538;2023-07-29T11:34:42;4.97;;;2.58;;
66175;SDS011;52977;44.816;20.538;2023-07-29T11:37:10;9.05;;;3.78;;
66175;SDS011;52977;44.816;20.538;2023-07-29T11:39:40;7.10;;;3.13;;
66175;SDS011;52977;44.816;20.538;2023-07-29T11:42:07;6.35;;;3.63;;
66175;SDS011;52977;44.816;20.538;2023-07-29T11:47:07;7.85;;;3.83;;
66175;SDS011;52977;44.816;20.538;2023-07-29T11:49:34;11.50;;;4.97;;
66175;SDS011;52977;44.816;20.538;2023-07-29T11:52:01;8.13;;;3.83;;
66175;SDS011;52977;44.816;20.538;2023-07-29T11:54:28;6.47;;;3.88;;
66175;SDS011;52977;44.816;20.538;2023-07-29T11:56:55;10.55;;;4.45;;
66175;SDS011;52977;44.816;20.538;2023-07-29T11:59:21;7.60;;;3.47;;
66175;SDS011;52977;44.816;20.538;2023-07-29T12:01:48;8.32;;;3.67;;
66175;SDS011;52977;44.816;20.538;2023-07-29T12:04:13;8.50;;;4.75;;
66175;SDS011;52977;44.816;20.538;2023-07-29T12:06:39;8.80;;;4.75;;
66175;SDS011;52977;44.816;20.538;2023-07-29T12:09:06;7.50;;;3.70;;
66175;SDS011;52977;44.816;20.538;2023-07-29T12:11:34;7.38;;;4.13;;
66175;SDS011;52977;44.816;20.538;2023-07-29T12:14:01;6.40;;;3.92;;
66175;SDS011;52977;44.816;20.538;2023-07-29T12:16:27;6.25;;;4.05;;
66175;SDS011;52977;44.816;20.538;2023-07-29T12:19:00;8.27;;;4.03;;
66175;SDS011;52977;44.816;20.538;2023-07-29T12:21:26;8.88;;;4.40;;
66175;SDS011;52977;44.816;20.538;2023-07-29T12:23:52;10.88;;;5.43;;
66175;SDS011;52977;44.816;20.538;2023-07-29T12:26:19;9.68;;;5.60;;
66175;SDS011;52977;44.816;20.538;2023-07-29T12:28:46;7.55;;;3.65;;
66175;SDS011;52977;44.816;20.538;2023-07-29T12:31:13;6.55;;;3.60;;
66175;SDS011;52977;44.816;20.538;2023-07-29T12:33:40;8.23;;;3.65;;
66175;SDS011;52977;44.816;20.538;2023-07-29T12:36:07;9.23;;;3.35;;
66175;SDS011;52977;44.816;20.538;2023-07-29T12:38:34;8.13;;;3.90;;
66175;SDS011;52977;44.816;20.538;2023-07-29T12:41:01;8.32;;;4.47;;
66175;SDS011;52977;44.816;20.538;2023-07-29T12:43:27;8.95;;;4.30;;
66175;SDS011;52977;44.816;20.538;2023-07-29T12:45:53;7.97;;;3.72;;
66175;SDS011;52977;44.816;20.538;2023-07-29T12:48:20;7.85;;;3.90;;
66175;SDS011;52977;44.816;20.538;2023-07-29T12:50:47;6.25;;;3.50;;
66175;SDS011;52977;44.816;20.538;2023-07-29T12:53:13;9.88;;;4.00;;
66175;SDS011;52977;44.816;20.538;2023-07-29T12:55:39;6.57;;;3.83;;
66175;SDS011;52977;44.816;20.538;2023-07-29T12:58:05;5.85;;;3.58;;
66175;SDS011;52977;44.816;20.538;2023-07-29T13:00:31;5.57;;;3.30;;
66175;SDS011;52977;44.816;20.538;2023-07-29T13:02:57;7.75;;;3.80;;
66175;SDS011;52977;44.816;20.538;2023-07-29T13:05:22;7.80;;;4.05;;
66175;SDS011;52977;44.816;20.538;2023-07-29T13:07:48;6.95;;;3.72;;
66175;SDS011;52977;44.816;20.538;2023-07-29T13:10:14;6.38;;;3.67;;
66175;SDS011;52977;44.816;20.538;2023-07-29T13:12:39;5.95;;;3.80;;
66175;SDS011;52977;44.816;20.538;2023-07-29T13:15:06;7.63;;;4.43;;
66175;SDS011;52977;44.816;20.538;2023-07-29T13:17:32;8.27;;;3.70;;
66175;SDS011;52977;44.816;20.538;2023-07-29T13:19:59;7.07;;;3.75;;
66175;SDS011;52977;44.816;20.538;2023-07-29T13:22:24;7.65;;;3.85;;
66175;SDS011;52977;44.816;20.538;2023-07-29T13:24:50;6.57;;;4.00;;
66175;SDS011;52977;44.816;20.538;2023-07-29T13:27:16;7.10;;;3.85;;
66175;SDS011;52977;44.816;20.538;2023-07-29T13:29:41;6.35;;;3.80;;
66175;SDS011;52977;44.816;20.538;2023-07-29T13:32:08;7.18;;;3.85;;
66175;SDS011;52977;44.816;20.538;2023-07-29T13:34:34;6.20;;;3.60;;
66175;SDS011;52977;44.816;20.538;2023-07-29T13:37:00;8.25;;;3.88;;
66175;SDS011;52977;44.816;20.538;2023-07-29T13:39:26;7.05;;;4.65;;
66175;SDS011;52977;44.816;20.538;2023-07-29T13:41:52;7.45;;;3.42;;
66175;SDS011;52977;44.816;20.538;2023-07-29T13:44:18;9.90;;;3.70;;
66175;SDS011;52977;44.816;20.538;2023-07-29T13:46:44;6.50;;;3.67;;
66175;SDS011;52977;44.816;20.538;2023-07-29T13:49:10;7.60;;;3.60;;
66175;SDS011;52977;44.816;20.538;2023-07-29T13:51:36;9.48;;;3.53;;
66175;SDS011;52977;44.816;20.538;2023-07-29T13:54:02;6.97;;;3.50;;
66175;SDS011;52977;44.816;20.538;2023-07-29T13:56:28;6.90;;;3.50;;
66175;SDS011;52977;44.816;20.538;2023-07-29T13:58:54;6.15;;;3.40;;
66175;SDS011;52977;44.816;20.538;2023-07-29T14:01:20;6.40;;;3.67;;
66175;SDS011;52977;44.816;20.538;2023-07-29T14:03:46;6.75;;;3.45;;
66175;SDS011;52977;44.816;20.538;2023-07-29T14:06:12;4.85;;;3.10;;
66175;SDS011;52977;44.816;20.538;2023-07-29T14:08:39;5.55;;;3.15;;
66175;SDS011;52977;44.816;20.538;2023-07-29T14:11:07;5.28;;;3.45;;
66175;SDS011;52977;44.816;20.538;2023-07-29T14:13:34;6.22;;;3.50;;
66175;SDS011;52977;44.816;20.538;2023-07-29T14:16:03;6.32;;;3.30;;
66175;SDS011;52977;44.816;20.538;2023-07-29T14:18:29;9.20;;;3.70;;
66175;SDS011;52977;44.816;20.538;2023-07-29T14:20:56;6.15;;;3.53;;
66175;SDS011;52977;44.816;20.538;2023-07-29T14:23:22;6.63;;;3.85;;
66175;SDS011;52977;44.816;20.538;2023-07-29T14:25:47;7.35;;;3.97;;
66175;SDS011;52977;44.816;20.538;2023-07-29T14:28:13;7.65;;;3.80;;
66175;SDS011;52977;44.816;20.538;2023-07-29T14:30:40;6.57;;;3.70;;
66175;SDS011;52977;44.816;20.538;2023-07-29T14:33:07;8.80;;;4.43;;
66175;SDS011;52977;44.816;20.538;2023-07-29T14:35:33;6.45;;;3.78;;
66175;SDS011;52977;44.816;20.538;2023-07-29T14:37:59;6.05;;;3.30;;
66175;SDS011;52977;44.816;20.538;2023-07-29T14:40:25;6.47;;;3.58;;
66175;SDS011;52977;44.816;20.538;2023-07-29T14:42:52;6.53;;;3.72;;
66175;SDS011;52977;44.816;20.538;2023-07-29T14:45:18;6.53;;;3.65;;
66175;SDS011;52977;44.816;20.538;2023-07-29T14:47:44;5.80;;;3.40;;
66175;SDS011;52977;44.816;20.538;2023-07-29T14:50:10;6.10;;;3.45;;
66175;SDS011;52977;44.816;20.538;2023-07-29T14:52:36;7.30;;;3.78;;
66175;SDS011;52977;44.816;20.538;2023-07-29T14:55:03;7.20;;;3.35;;
66175;SDS011;52977;44.816;20.538;2023-07-29T14:57:29;7.20;;;3.65;;
66175;SDS011;52977;44.816;20.538;2023-07-29T14:59:56;6.53;;;3.05;;
66175;SDS011;52977;44.816;20.538;2023-07-29T15:02:22;7.13;;;3.10;;
66175;SDS011;52977;44.816;20.538;2023-07-29T15:04:49;5.75;;;3.58;;